sensor_id;sensor_type;location;lat;lon;timestamp;pressure;altitude;pressure_sealevel;temperature;humidity
4590;BME280;2307;48.448;9.216;2022-11-20T00:01:17;94899.28;;;5.14;100.00
4590;BME280;2307;48.448;9.216;2022-11-20T00:03:43;94910.41;;;5.10;100.00
4590;BME280;2307;48.448;9.216;2022-11-20T00:06:11;94900.72;;;5.17;100.00
4590;BME280;2307;48.448;9.216;2022-11-20T00:08:37;94903.53;;;5.15;100.00
4590;BME280;2307;48.448;9.216;2022-11-20T00:11:04;94903.09;;;5.18;100.00
4590;BME280;2307;48.448;9.216;2022-11-20T00:13:30;94903.94;;;5.12;100.00
4590;BME280;2307;48.448;9.216;2022-11-20T00:15:58;94900.31;;;5.13;100.00
4590;BME280;2307;48.448;9.216;2022-11-20T00:18:25;94901.34;;;5.12;100.00
4590;BME280;2307;48.448;9.216;2022-11-20T00:20:51;94897.09;;;5.11;100.00
4590;BME280;2307;48.448;9.216;2022-11-20T00:23:18;94907.56;;;5.11;100.00
4590;BME280;2307;48.448;9.216;2022-11-20T00:25:44;94904.81;;;5.06;100.00
4590;BME280;2307;48.448;9.216;2022-11-20T00:28:11;94906.41;;;5.07;100.00
4590;BME280;2307;48.448;9.216;2022-11-20T00:30:37;94911.22;;;5.10;100.00
4590;BME280;2307;48.448;9.216;2022-11-20T00:33:05;94906.81;;;5.04;100.00
4590;BME280;2307;48.448;9.216;2022-11-20T00:35:32;94920.31;;;5.01;100.00
4590;BME280;2307;48.448;9.216;2022-11-20T00:37:58;94904.47;;;4.96;100.00
4590;BME280;2307;48.448;9.216;2022-11-20T00:40:24;94910.53;;;4.90;100.00
4590;BME280;2307;48.448;9.216;2022-11-20T00:42:51;94906.94;;;4.91;100.00
4590;BME280;2307;48.448;9.216;2022-11-20T00:45:17;94920.75;;;4.98;100.00
4590;BME280;2307;48.448;9.216;2022-11-20T00:47:43;94904.50;;;4.90;100.00
4590;BME280;2307;48.448;9.216;2022-11-20T00:50:11;94910.16;;;4.87;100.00
4590;BME280;2307;48.448;9.216;2022-11-20T00:52:37;94915.00;;;4.83;100.00
4590;BME280;2307;48.448;9.216;2022-11-20T00:55:04;94917.63;;;4.83;100.00
4590;BME280;2307;48.448;9.216;2022-11-20T00:57:31;94914.44;;;4.81;100.00
4590;BME280;2307;48.448;9.216;2022-11-20T00:59:57;94908.16;;;4.82;100.00
4590;BME280;2307;48.448;9.216;2022-11-20T01:02:23;94922.00;;;4.89;100.00
4590;BME280;2307;48.448;9.216;2022-11-20T01:04:50;94919.81;;;4.86;100.00
4590;BME280;2307;48.448;9.216;2022-11-20T01:07:18;94937.13;;;4.87;100.00
4590;BME280;2307;48.448;9.216;2022-11-20T01:09:44;94927.66;;;4.86;100.00
4590;BME280;2307;48.448;9.216;2022-11-20T01:12:10;94927.50;;;4.81;100.00
4590;BME280;2307;48.448;9.216;2022-11-20T01:14:37;94927.09;;;4.84;100.00
4590;BME280;2307;48.448;9.216;2022-11-20T01:17:03;94921.50;;;4.74;100.00
4590;BME280;2307;48.448;9.216;2022-11-20T01:19:30;94932.56;;;4.76;100.00
4590;BME280;2307;48.448;9.216;2022-11-20T01:21:56;94930.16;;;4.74;100.00
4590;BME280;2307;48.448;9.216;2022-11-20T01:24:24;94931.91;;;4.87;100.00
4590;BME280;2307;48.448;9.216;2022-11-20T01:26:51;94936.38;;;4.80;100.00
4590;BME280;2307;48.448;9.216;2022-11-20T01:29:21;94932.34;;;4.77;100.00
4590;BME280;2307;48.448;9.216;2022-11-20T01:31:48;94934.75;;;4.79;100.00
4590;BME280;2307;48.448;9.216;2022-11-20T01:34:15;94934.16;;;4.77;100.00
4590;BME280;2307;48.448;9.216;2022-11-20T01:36:42;94936.75;;;4.83;100.00
4590;BME280;2307;48.448;9.216;2022-11-20T01:39:10;94936.56;;;4.85;100.00
4590;BME280;2307;48.448;9.216;2022-11-20T01:41:38;94942.38;;;4.87;100.00
4590;BME280;2307;48.448;9.216;2022-11-20T01:44:39;94931.47;;;4.90;100.00
4590;BME280;2307;48.448;9.216;2022-11-20T01:47:08;94942.09;;;4.95;100.00
4590;BME280;2307;48.448;9.216;2022-11-20T01:49:37;94939.84;;;5.05;100.00
4590;BME280;2307;48.448;9.216;2022-11-20T01:52:05;94934.41;;;5.07;100.00
4590;BME280;2307;48.448;9.216;2022-11-20T01:54:34;94933.38;;;5.08;100.00
4590;BME280;2307;48.448;9.216;2022-11-20T01:57:03;94935.81;;;5.03;100.00
4590;BME280;2307;48.448;9.216;2022-11-20T01:59:30;94931.22;;;4.98;100.00
4590;BME280;2307;48.448;9.216;2022-11-20T02:01:57;94936.25;;;5.00;100.00
4590;BME280;2307;48.448;9.216;2022-11-20T02:04:24;94937.47;;;4.97;100.00
4590;BME280;2307;48.448;9.216;2022-11-20T02:06:51;94945.44;;;5.09;100.00
4590;BME280;2307;48.448;9.216;2022-11-20T02:09:21;94938.88;;;5.00;100.00
4590;BME280;2307;48.448;9.216;2022-11-20T02:11:47;94933.81;;;4.98;100.00
4590;BME280;2307;48.448;9.216;2022-11-20T02:14:15;94940.84;;;5.04;100.00
4590;BME280;2307;48.448;9.216;2022-11-20T02:16:43;94939.44;;;5.02;100.00
4590;BME280;2307;48.448;9.216;2022-11-20T02:19:13;94933.78;;;5.05;100.00
4590;BME280;2307;48.448;9.216;2022-11-20T02:21:43;94938.59;;;5.08;100.00
4590;BME280;2307;48.448;9.216;2022-11-20T02:24:15;94940.63;;;5.06;100.00
4590;BME280;2307;48.448;9.216;2022-11-20T02:26:44;94935.75;;;5.16;100.00
4590;BME280;2307;48.448;9.216;2022-11-20T02:29:12;94934.50;;;5.18;100.00
4590;BME280;2307;48.448;9.216;2022-11-20T02:31:40;94943.78;;;5.14;100.00
4590;BME280;2307;48.448;9.216;2022-11-20T02:34:07;94939.75;;;5.18;100.00
4590;BME280;2307;48.448;9.216;2022-11-20T02:36:34;94936.13;;;5.19;100.00
4590;BME280;2307;48.448;9.216;2022-11-20T02:39:02;94930.56;;;5.34;100.00
4590;BME280;2307;48.448;9.216;2022-11-20T02:41:33;94934.88;;;5.22;100.00
4590;BME280;2307;48.448;9.216;2022-11-20T02:44:00;94936.81;;;5.33;100.00
4590;BME280;2307;48.448;9.216;2022-11-20T02:46:27;94935.59;;;5.35;100.00
4590;BME280;2307;48.448;9.216;2022-11-20T02:48:53;94939.06;;;5.29;100.00
4590;BME280;2307;48.448;9.216;2022-11-20T02:51:19;94935.84;;;5.27;100.00
4590;BME280;2307;48.448;9.216;2022-11-20T02:53:46;94938.09;;;5.24;100.00
4590;BME280;2307;48.448;9.216;2022-11-20T02:56:12;94929.06;;;5.20;100.00
4590;BME280;2307;48.448;9.216;2022-11-20T02:58:40;94933.66;;;5.24;100.00
4590;BME280;2307;48.448;9.216;2022-11-20T03:01:06;94928.38;;;5.31;100.00
4590;BME280;2307;48.448;9.216;2022-11-20T03:03:33;94936.75;;;5.40;100.00
4590;BME280;2307;48.448;9.216;2022-11-20T03:05:59;94934.56;;;5.36;100.00
4590;BME280;2307;48.448;9.216;2022-11-20T03:08:25;94925.59;;;5.26;100.00
4590;BME280;2307;48.448;9.216;2022-11-20T03:10:52;94926.38;;;5.26;100.00
4590;BME280;2307;48.448;9.216;2022-11-20T03:13:18;94928.41;;;5.24;100.00
4590;BME280;2307;48.448;9.216;2022-11-20T03:15:46;94922.97;;;5.26;100.00
4590;BME280;2307;48.448;9.216;2022-11-20T03:18:12;94919.59;;;5.19;100.00
4590;BME280;2307;48.448;9.216;2022-11-20T03:20:39;94910.75;;;5.20;100.00
4590;BME280;2307;48.448;9.216;2022-11-20T03:23:06;94922.81;;;5.21;100.00
4590;BME280;2307;48.448;9.216;2022-11-20T03:25:32;94925.41;;;5.21;100.00
4590;BME280;2307;48.448;9.216;2022-11-20T03:27:58;94927.69;;;5.11;100.00
4590;BME280;2307;48.448;9.216;2022-11-20T03:30:25;94917.69;;;5.01;100.00
4590;BME280;2307;48.448;9.216;2022-11-20T03:32:53;94914.94;;;4.96;100.00
4590;BME280;2307;48.448;9.216;2022-11-20T03:35:20;94917.41;;;4.91;100.00
4590;BME280;2307;48.448;9.216;2022-11-20T03:37:46;94917.41;;;4.91;100.00
4590;BME280;2307;48.448;9.216;2022-11-20T03:40:13;94924.22;;;4.92;100.00
4590;BME280;2307;48.448;9.216;2022-11-20T03:42:39;94918.81;;;4.87;100.00
4590;BME280;2307;48.448;9.216;2022-11-20T03:45:12;94917.25;;;4.79;100.00
4590;BME280;2307;48.448;9.216;2022-11-20T03:47:38;94922.28;;;4.81;100.00
4590;BME280;2307;48.448;9.216;2022-11-20T03:50:06;94913.47;;;4.75;100.00
4590;BME280;2307;48.448;9.216;2022-11-20T03:52:33;94923.50;;;4.78;100.00
4590;BME280;2307;48.448;9.216;2022-11-20T03:54:59;94919.47;;;4.76;100.00
4590;BME280;2307;48.448;9.216;2022-11-20T03:57:26;94923.69;;;4.77;100.00
4590;BME280;2307;48.448;9.216;2022-11-20T03:59:52;94933.97;;;4.78;100.00
4590;BME280;2307;48.448;9.216;2022-11-20T04:02:18;94923.78;;;4.64;100.00
4590;BME280;2307;48.448;9.216;2022-11-20T04:04:45;94925.19;;;4.60;100.00
4590;BME280;2307;48.448;9.216;2022-11-20T04:07:12;94921.56;;;4.61;100.00
4590;BME280;2307;48.448;9.216;2022-11-20T04:09:39;94937.25;;;4.67;100.00
4590;BME280;2307;48.448;9.216;2022-11-20T04:12:05;94928.19;;;4.63;100.00
4590;BME280;2307;48.448;9.216;2022-11-20T04:14:31;94939.41;;;4.77;100.00
4590;BME280;2307;48.448;9.216;2022-11-20T04:16:58;94934.16;;;4.77;100.00
4590;BME280;2307;48.448;9.216;2022-11-20T04:19:24;94935.94;;;4.83;100.00
4590;BME280;2307;48.448;9.216;2022-11-20T04:21:50;94938.31;;;4.91;100.00
4590;BME280;2307;48.448;9.216;2022-11-20T04:24:18;94921.78;;;4.97;100.00
4590;BME280;2307;48.448;9.216;2022-11-20T04:26:44;94934.59;;;5.05;100.00
4590;BME280;2307;48.448;9.216;2022-11-20T04:29:11;94931.97;;;5.05;100.00
4590;BME280;2307;48.448;9.216;2022-11-20T04:31:38;94932.16;;;5.10;100.00
4590;BME280;2307;48.448;9.216;2022-11-20T04:34:05;94929.97;;;5.07;100.00
4590;BME280;2307;48.448;9.216;2022-11-20T04:36:31;94937.00;;;5.07;100.00
4590;BME280;2307;48.448;9.216;2022-11-20T04:38:59;94922.41;;;5.17;100.00
4590;BME280;2307;48.448;9.216;2022-11-20T04:41:28;94925.41;;;5.21;100.00
4590;BME280;2307;48.448;9.216;2022-11-20T04:43:55;94927.41;;;5.25;100.00
4590;BME280;2307;48.448;9.216;2022-11-20T04:46:24;94926.81;;;5.23;100.00
4590;BME280;2307;48.448;9.216;2022-11-20T04:48:51;94918.19;;;5.23;100.00
4590;BME280;2307;48.448;9.216;2022-11-20T04:51:17;94927.22;;;5.20;100.00
4590;BME280;2307;48.448;9.216;2022-11-20T04:53:44;94926.22;;;5.21;100.00
4590;BME280;2307;48.448;9.216;2022-11-20T04:56:10;94932.03;;;5.23;100.00
4590;BME280;2307;48.448;9.216;2022-11-20T04:58:39;94931.88;;;5.18;100.00
4590;BME280;2307;48.448;9.216;2022-11-20T05:01:06;94925.22;;;5.22;100.00
4590;BME280;2307;48.448;9.216;2022-11-20T05:03:32;94940.53;;;5.19;100.00
4590;BME280;2307;48.448;9.216;2022-11-20T05:06:00;94925.66;;;5.19;100.00
4590;BME280;2307;48.448;9.216;2022-11-20T05:08:26;94927.66;;;5.17;100.00
4590;BME280;2307;48.448;9.216;2022-11-20T05:10:52;94921.94;;;5.27;100.00
4590;BME280;2307;48.448;9.216;2022-11-20T05:13:19;94928.41;;;5.24;100.00
4590;BME280;2307;48.448;9.216;2022-11-20T05:15:47;94919.19;;;5.22;100.00
4590;BME280;2307;48.448;9.216;2022-11-20T05:18:13;94919.19;;;5.22;100.00
4590;BME280;2307;48.448;9.216;2022-11-20T05:20:39;94913.38;;;5.20;100.00
4590;BME280;2307;48.448;9.216;2022-11-20T05:23:06;94907.75;;;5.16;100.00
4590;BME280;2307;48.448;9.216;2022-11-20T05:25:32;94915.91;;;5.26;100.00
4590;BME280;2307;48.448;9.216;2022-11-20T05:27:58;94919.19;;;5.22;100.00
4590;BME280;2307;48.448;9.216;2022-11-20T05:30:25;94917.53;;;5.27;100.00
4590;BME280;2307;48.448;9.216;2022-11-20T05:32:53;94915.75;;;5.21;100.00
4590;BME280;2307;48.448;9.216;2022-11-20T05:35:19;94917.19;;;5.17;100.00
4590;BME280;2307;48.448;9.216;2022-11-20T05:37:45;94915.38;;;5.18;100.00
4590;BME280;2307;48.448;9.216;2022-11-20T05:40:12;94905.88;;;5.23;100.00
4590;BME280;2307;48.448;9.216;2022-11-20T05:42:38;94908.13;;;5.20;100.00
4590;BME280;2307;48.448;9.216;2022-11-20T05:45:05;94905.44;;;5.26;100.00
4590;BME280;2307;48.448;9.216;2022-11-20T05:47:33;94904.97;;;5.11;100.00
4590;BME280;2307;48.448;9.216;2022-11-20T05:50:01;94900.31;;;5.13;100.00
4590;BME280;2307;48.448;9.216;2022-11-20T05:52:28;94901.75;;;5.09;100.00
4590;BME280;2307;48.448;9.216;2022-11-20T05:54:54;94905.72;;;5.18;100.00
4590;BME280;2307;48.448;9.216;2022-11-20T05:57:20;94906.56;;;5.12;100.00
4590;BME280;2307;48.448;9.216;2022-11-20T05:59:47;94906.03;;;5.04;100.00
4590;BME280;2307;48.448;9.216;2022-11-20T06:02:13;94900.00;;;5.03;100.00
4590;BME280;2307;48.448;9.216;2022-11-20T06:04:40;94908.84;;;5.02;100.00
4590;BME280;2307;48.448;9.216;2022-11-20T06:07:07;94906.28;;;4.96;100.00
4590;BME280;2307;48.448;9.216;2022-11-20T06:09:34;94906.47;;;5.01;100.00
4590;BME280;2307;48.448;9.216;2022-11-20T06:12:00;94908.09;;;4.95;100.00
4590;BME280;2307;48.448;9.216;2022-11-20T06:14:27;94900.88;;;4.91;100.00
4590;BME280;2307;48.448;9.216;2022-11-20T06:16:53;94903.28;;;4.92;100.00
4590;BME280;2307;48.448;9.216;2022-11-20T06:19:19;94900.84;;;4.97;100.00
4590;BME280;2307;48.448;9.216;2022-11-20T06:21:47;94901.94;;;4.83;100.00
4590;BME280;2307;48.448;9.216;2022-11-20T06:24:15;94896.50;;;4.85;100.00
4590;BME280;2307;48.448;9.216;2022-11-20T06:26:41;94905.16;;;4.85;100.00
4590;BME280;2307;48.448;9.216;2022-11-20T06:29:08;94914.16;;;4.89;100.00
4590;BME280;2307;48.448;9.216;2022-11-20T06:31:34;94903.28;;;4.92;100.00
4590;BME280;2307;48.448;9.216;2022-11-20T06:34:02;94907.31;;;4.95;100.00
4590;BME280;2307;48.448;9.216;2022-11-20T06:36:29;94904.31;;;4.91;100.00
4590;BME280;2307;48.448;9.216;2022-11-20T06:38:55;94910.53;;;4.90;100.00
4590;BME280;2307;48.448;9.216;2022-11-20T06:41:23;94903.28;;;4.92;100.00
4590;BME280;2307;48.448;9.216;2022-11-20T06:43:50;94908.00;;;5.08;100.00
4590;BME280;2307;48.448;9.216;2022-11-20T06:46:17;94900.41;;;5.00;100.00
4590;BME280;2307;48.448;9.216;2022-11-20T06:48:44;94908.88;;;4.96;100.00
4590;BME280;2307;48.448;9.216;2022-11-20T06:51:10;94907.47;;;5.00;100.00
4590;BME280;2307;48.448;9.216;2022-11-20T06:53:37;94906.09;;;4.97;100.00
4590;BME280;2307;48.448;9.216;2022-11-20T06:56:03;94910.88;;;5.00;100.00
4590;BME280;2307;48.448;9.216;2022-11-20T06:58:32;94909.28;;;4.99;100.00
4590;BME280;2307;48.448;9.216;2022-11-20T07:00:59;94919.31;;;5.02;100.00
4590;BME280;2307;48.448;9.216;2022-11-20T07:03:25;94913.50;;;5.00;100.00
4590;BME280;2307;48.448;9.216;2022-11-20T07:05:53;94924.13;;;5.05;100.00
4590;BME280;2307;48.448;9.216;2022-11-20T07:08:20;94917.47;;;5.09;100.00
4590;BME280;2307;48.448;9.216;2022-11-20T07:10:46;94912.00;;;5.11;100.00
4590;BME280;2307;48.448;9.216;2022-11-20T07:13:13;94924.09;;;5.12;100.00
4590;BME280;2307;48.448;9.216;2022-11-20T07:15:41;94920.03;;;5.16;100.00
4590;BME280;2307;48.448;9.216;2022-11-20T07:18:07;94921.22;;;5.20;100.00
4590;BME280;2307;48.448;9.216;2022-11-20T07:20:33;94936.53;;;5.16;100.00
4590;BME280;2307;48.448;9.216;2022-11-20T07:23:00;94923.13;;;5.31;100.00
4590;BME280;2307;48.448;9.216;2022-11-20T07:25:27;94930.22;;;5.24;100.00
4590;BME280;2307;48.448;9.216;2022-11-20T07:27:56;94944.50;;;5.28;100.00
4590;BME280;2307;48.448;9.216;2022-11-20T07:30:22;94934.22;;;5.26;100.00
4590;BME280;2307;48.448;9.216;2022-11-20T07:32:51;94934.88;;;5.22;100.00
4590;BME280;2307;48.448;9.216;2022-11-20T07:35:18;94935.41;;;5.30;100.00
4590;BME280;2307;48.448;9.216;2022-11-20T07:37:45;94943.69;;;5.27;100.00
4590;BME280;2307;48.448;9.216;2022-11-20T07:40:12;94932.81;;;5.30;100.00
4590;BME280;2307;48.448;9.216;2022-11-20T07:42:38;94949.84;;;5.40;100.00
4590;BME280;2307;48.448;9.216;2022-11-20T07:45:05;94936.03;;;5.32;100.00
4590;BME280;2307;48.448;9.216;2022-11-20T07:47:34;94960.94;;;5.42;100.00
4590;BME280;2307;48.448;9.216;2022-11-20T07:50:02;94950.03;;;5.45;100.00
4590;BME280;2307;48.448;9.216;2022-11-20T07:52:28;94939.38;;;5.40;100.00
4590;BME280;2307;48.448;9.216;2022-11-20T07:54:55;94947.59;;;5.43;100.00
4590;BME280;2307;48.448;9.216;2022-11-20T07:57:21;94946.38;;;5.46;100.00
4590;BME280;2307;48.448;9.216;2022-11-20T07:59:48;94943.06;;;5.57;100.00
4590;BME280;2307;48.448;9.216;2022-11-20T08:02:14;94949.88;;;5.64;100.00
4590;BME280;2307;48.448;9.216;2022-11-20T08:04:40;94942.59;;;5.66;100.00
4590;BME280;2307;48.448;9.216;2022-11-20T08:07:08;94948.19;;;5.70;100.00
4590;BME280;2307;48.448;9.216;2022-11-20T08:09:35;94954.63;;;5.74;100.00
4590;BME280;2307;48.448;9.216;2022-11-20T08:12:01;94949.16;;;5.75;100.00
4590;BME280;2307;48.448;9.216;2022-11-20T08:14:45;94955.56;;;5.79;100.00
4590;BME280;2307;48.448;9.216;2022-11-20T08:17:11;94957.25;;;5.74;100.00
4590;BME280;2307;48.448;9.216;2022-11-20T08:19:38;94951.78;;;5.75;100.00
4590;BME280;2307;48.448;9.216;2022-11-20T08:22:04;94962.19;;;5.82;100.00
4590;BME280;2307;48.448;9.216;2022-11-20T08:24:32;94958.38;;;5.78;100.00
4590;BME280;2307;48.448;9.216;2022-11-20T08:26:59;94966.41;;;5.83;100.00
4590;BME280;2307;48.448;9.216;2022-11-20T08:29:25;94949.94;;;5.76;100.00
4590;BME280;2307;48.448;9.216;2022-11-20T08:31:52;94971.06;;;5.81;100.00
4590;BME280;2307;48.448;9.216;2022-11-20T08:34:18;94957.63;;;5.71;100.00
4590;BME280;2307;48.448;9.216;2022-11-20T08:36:45;94948.72;;;5.78;100.00
4590;BME280;2307;48.448;9.216;2022-11-20T08:39:11;94968.22;;;5.89;100.00
4590;BME280;2307;48.448;9.216;2022-11-20T08:41:42;94973.44;;;5.89;100.00
4590;BME280;2307;48.448;9.216;2022-11-20T08:44:08;94947.81;;;5.91;100.00
4590;BME280;2307;48.448;9.216;2022-11-20T08:46:35;94957.22;;;5.99;100.00
4590;BME280;2307;48.448;9.216;2022-11-20T08:49:02;94967.66;;;6.05;100.00
4590;BME280;2307;48.448;9.216;2022-11-20T08:51:29;94964.16;;;6.11;100.00
4590;BME280;2307;48.448;9.216;2022-11-20T08:53:55;94970.84;;;6.07;100.00
4590;BME280;2307;48.448;9.216;2022-11-20T08:56:22;94961.09;;;6.14;100.00
4590;BME280;2307;48.448;9.216;2022-11-20T08:58:50;94970.16;;;6.18;100.00
4590;BME280;2307;48.448;9.216;2022-11-20T09:01:17;94976.78;;;6.21;100.00
4590;BME280;2307;48.448;9.216;2022-11-20T09:03:44;94977.56;;;6.21;100.00
4590;BME280;2307;48.448;9.216;2022-11-20T09:06:10;94988.63;;;6.23;100.00
4590;BME280;2307;48.448;9.216;2022-11-20T09:08:36;94990.31;;;6.18;100.00
4590;BME280;2307;48.448;9.216;2022-11-20T09:11:03;94985.34;;;6.10;100.00
4590;BME280;2307;48.448;9.216;2022-11-20T09:13:30;94981.75;;;6.04;100.00
4590;BME280;2307;48.448;9.216;2022-11-20T09:15:59;94974.47;;;6.06;100.00
4590;BME280;2307;48.448;9.216;2022-11-20T09:18:26;94979.00;;;5.99;100.00
4590;BME280;2307;48.448;9.216;2022-11-20T09:20:55;94972.28;;;6.03;100.00
4590;BME280;2307;48.448;9.216;2022-11-20T09:23:22;94978.13;;;6.05;100.00
4590;BME280;2307;48.448;9.216;2022-11-20T09:25:49;94975.28;;;6.07;100.00
4590;BME280;2307;48.448;9.216;2022-11-20T09:28:15;94982.06;;;5.96;100.00
4590;BME280;2307;48.448;9.216;2022-11-20T09:30:43;94979.00;;;5.99;100.00
4590;BME280;2307;48.448;9.216;2022-11-20T09:33:11;94976.53;;;6.04;100.00
4590;BME280;2307;48.448;9.216;2022-11-20T09:35:37;94991.06;;;6.00;100.00
4590;BME280;2307;48.448;9.216;2022-11-20T09:38:04;94987.94;;;5.92;100.00
4590;BME280;2307;48.448;9.216;2022-11-20T09:40:30;94982.91;;;5.90;100.00
4590;BME280;2307;48.448;9.216;2022-11-20T09:42:57;94993.38;;;5.90;100.00
4590;BME280;2307;48.448;9.216;2022-11-20T09:45:30;94990.31;;;5.93;100.00
4590;BME280;2307;48.448;9.216;2022-11-20T09:48:04;94993.97;;;5.92;100.00
4590;BME280;2307;48.448;9.216;2022-11-20T09:50:36;94999.16;;;5.99;100.00
4590;BME280;2307;48.448;9.216;2022-11-20T09:53:11;95015.69;;;5.99;100.00
4590;BME280;2307;48.448;9.216;2022-11-20T09:55:38;95003.84;;;5.90;100.00
4590;BME280;2307;48.448;9.216;2022-11-20T09:58:05;95012.09;;;5.94;100.00
4590;BME280;2307;48.448;9.216;2022-11-20T10:00:32;95000.75;;;6.00;100.00
4590;BME280;2307;48.448;9.216;2022-11-20T10:03:01;95011.59;;;6.03;100.00
4590;BME280;2307;48.448;9.216;2022-11-20T10:05:29;95006.22;;;5.98;100.00
4590;BME280;2307;48.448;9.216;2022-11-20T10:08:02;95028.19;;;5.97;100.00
4590;BME280;2307;48.448;9.216;2022-11-20T10:10:33;95002.66;;;5.93;100.00
4590;BME280;2307;48.448;9.216;2022-11-20T10:13:05;95005.72;;;5.83;100.00
4590;BME280;2307;48.448;9.216;2022-11-20T10:15:38;95002.88;;;5.84;100.00
4590;BME280;2307;48.448;9.216;2022-11-20T10:18:10;94999.31;;;5.79;100.00
4590;BME280;2307;48.448;9.216;2022-11-20T10:20:40;94991.00;;;5.88;100.00
4590;BME280;2307;48.448;9.216;2022-11-20T10:23:16;95001.66;;;5.87;100.00
4590;BME280;2307;48.448;9.216;2022-11-20T10:25:50;95007.31;;;5.84;100.00
4590;BME280;2307;48.448;9.216;2022-11-20T10:28:25;95007.28;;;5.91;100.00
4590;BME280;2307;48.448;9.216;2022-11-20T10:30:55;95001.25;;;5.90;100.00
4590;BME280;2307;48.448;9.216;2022-11-20T10:33:23;95027.31;;;5.78;100.00
4590;BME280;2307;48.448;9.216;2022-11-20T10:35:52;95009.22;;;5.77;100.00
4590;BME280;2307;48.448;9.216;2022-11-20T10:38:23;95016.63;;;5.80;100.00
4590;BME280;2307;48.448;9.216;2022-11-20T10:40:52;95013.78;;;5.81;100.00
4590;BME280;2307;48.448;9.216;2022-11-20T10:43:19;95010.97;;;5.83;100.00
4590;BME280;2307;48.448;9.216;2022-11-20T10:45:49;95019.41;;;5.85;100.00
4590;BME280;2307;48.448;9.216;2022-11-20T10:48:19;95015.00;;;5.85;100.00
4590;BME280;2307;48.448;9.216;2022-11-20T10:50:49;95016.03;;;5.78;100.00
4590;BME280;2307;48.448;9.216;2022-11-20T10:53:25;95016.63;;;5.80;100.00
4590;BME280;2307;48.448;9.216;2022-11-20T10:55:59;94993.63;;;5.82;100.00
4590;BME280;2307;48.448;9.216;2022-11-20T10:58:29;95003.69;;;5.85;100.00
4590;BME280;2307;48.448;9.216;2022-11-20T11:01:04;94999.69;;;5.82;100.00
4590;BME280;2307;48.448;9.216;2022-11-20T11:03:31;95010.22;;;5.76;100.00
4590;BME280;2307;48.448;9.216;2022-11-20T11:05:59;95008.66;;;5.68;100.00
4590;BME280;2307;48.448;9.216;2022-11-20T11:08:32;95015.72;;;5.68;100.00
4590;BME280;2307;48.448;9.216;2022-11-20T11:11:01;95007.97;;;5.55;100.00
4590;BME280;2307;48.448;9.216;2022-11-20T11:13:29;95000.53;;;5.52;100.00
4590;BME280;2307;48.448;9.216;2022-11-20T11:15:56;95001.97;;;5.48;100.00
4590;BME280;2307;48.448;9.216;2022-11-20T11:18:23;94996.31;;;5.51;100.00
4590;BME280;2307;48.448;9.216;2022-11-20T11:20:50;95000.16;;;5.48;100.00
4590;BME280;2307;48.448;9.216;2022-11-20T11:23:22;95003.16;;;5.52;100.00
4590;BME280;2307;48.448;9.216;2022-11-20T11:25:57;94986.41;;;5.53;100.00
4590;BME280;2307;48.448;9.216;2022-11-20T11:28:24;94978.13;;;5.56;100.00
4590;BME280;2307;48.448;9.216;2022-11-20T11:30:52;94980.75;;;5.56;100.00
4590;BME280;2307;48.448;9.216;2022-11-20T11:33:20;94968.25;;;5.58;100.00
4590;BME280;2307;48.448;9.216;2022-11-20T11:35:47;94971.44;;;5.60;100.00
4590;BME280;2307;48.448;9.216;2022-11-20T11:38:15;94968.13;;;5.71;100.00
4590;BME280;2307;48.448;9.216;2022-11-20T11:40:43;94964.72;;;5.70;100.00
4590;BME280;2307;48.448;9.216;2022-11-20T11:43:17;94968.13;;;5.71;100.00
4590;BME280;2307;48.448;9.216;2022-11-20T11:46:02;94965.50;;;5.71;100.00
4590;BME280;2307;48.448;9.216;2022-11-20T11:48:31;94970.00;;;5.64;100.00
4590;BME280;2307;48.448;9.216;2022-11-20T11:50:58;94959.09;;;5.67;100.00
4590;BME280;2307;48.448;9.216;2022-11-20T11:53:24;94948.63;;;5.67;100.00
4590;BME280;2307;48.448;9.216;2022-11-20T11:55:54;94961.81;;;5.78;100.00
4590;BME280;2307;48.448;9.216;2022-11-20T11:58:31;94955.19;;;6.01;100.00
4590;BME280;2307;48.448;9.216;2022-11-20T12:01:02;94947.47;;;6.06;100.00
4590;BME280;2307;48.448;9.216;2022-11-20T12:03:32;94957.38;;;6.04;100.00
4590;BME280;2307;48.448;9.216;2022-11-20T12:06:01;94957.31;;;6.10;100.00
4590;BME280;2307;48.448;9.216;2022-11-20T12:08:32;94947.56;;;5.99;100.00
4590;BME280;2307;48.448;9.216;2022-11-20T12:11:06;94949.16;;;6.18;100.00
4590;BME280;2307;48.448;9.216;2022-11-20T12:13:42;94944.94;;;6.17;100.00
4590;BME280;2307;48.448;9.216;2022-11-20T12:16:11;94946.16;;;6.33;100.00
4590;BME280;2307;48.448;9.216;2022-11-20T12:18:39;94946.47;;;6.43;100.00
4590;BME280;2307;48.448;9.216;2022-11-20T12:21:10;94942.25;;;6.24;100.00
4590;BME280;2307;48.448;9.216;2022-11-20T12:23:42;94936.41;;;6.40;100.00
4590;BME280;2307;48.448;9.216;2022-11-20T12:26:15;94939.31;;;6.32;100.00
4590;BME280;2307;48.448;9.216;2022-11-20T12:28:50;94931.38;;;6.38;100.00
4590;BME280;2307;48.448;9.216;2022-11-20T12:31:26;94937.50;;;6.32;100.00
4590;BME280;2307;48.448;9.216;2022-11-20T12:34:09;94931.59;;;6.19;100.00
4590;BME280;2307;48.448;9.216;2022-11-20T12:36:40;94934.22;;;6.19;100.00
4590;BME280;2307;48.448;9.216;2022-11-20T12:39:15;94925.84;;;6.10;100.00
4590;BME280;2307;48.448;9.216;2022-11-20T12:41:49;94925.19;;;5.97;100.00
4590;BME280;2307;48.448;9.216;2022-11-20T12:44:41;94915.38;;;5.92;100.00
4590;BME280;2307;48.448;9.216;2022-11-20T12:47:28;94905.16;;;6.20;100.00
4590;BME280;2307;48.448;9.216;2022-11-20T12:50:01;94909.56;;;6.86;100.00
4590;BME280;2307;48.448;9.216;2022-11-20T12:52:32;94901.44;;;7.17;100.00
4590;BME280;2307;48.448;9.216;2022-11-20T12:57:46;94919.63;;;7.30;100.00
4590;BME280;2307;48.448;9.216;2022-11-20T13:00:18;94919.81;;;7.17;100.00
4590;BME280;2307;48.448;9.216;2022-11-20T13:05:37;94912.66;;;6.94;100.00
4590;BME280;2307;48.448;9.216;2022-11-20T13:08:08;94927.66;;;7.06;100.00
4590;BME280;2307;48.448;9.216;2022-11-20T13:10:42;94914.09;;;7.20;100.00
4590;BME280;2307;48.448;9.216;2022-11-20T13:13:13;94908.13;;;7.55;100.00
4590;BME280;2307;48.448;9.216;2022-11-20T13:15:47;94904.69;;;7.77;100.00
4590;BME280;2307;48.448;9.216;2022-11-20T13:18:14;94896.75;;;8.12;100.00
4590;BME280;2307;48.448;9.216;2022-11-20T13:20:41;94898.44;;;8.41;100.00
4590;BME280;2307;48.448;9.216;2022-11-20T13:23:08;94906.56;;;8.80;100.00
4590;BME280;2307;48.448;9.216;2022-11-20T13:25:36;94902.16;;;8.97;100.00
4590;BME280;2307;48.448;9.216;2022-11-20T13:28:03;94905.94;;;9.34;100.00
4590;BME280;2307;48.448;9.216;2022-11-20T13:30:30;94913.38;;;9.37;100.00
4590;BME280;2307;48.448;9.216;2022-11-20T13:33:00;94909.03;;;9.15;96.73